sensor_id;sensor_type;location;lat;lon;timestamp;temperature;humidity
52799;DHT22;38667;42.872;74.622;2023-03-03T00:01:44;10.50;30.30
52799;DHT22;38667;42.872;74.622;2023-03-03T00:04:11;10.50;31.00
52799;DHT22;38667;42.872;74.622;2023-03-03T00:06:38;10.50;30.20
52799;DHT22;38667;42.872;74.622;2023-03-03T00:09:05;10.50;30.50
52799;DHT22;38667;42.872;74.622;2023-03-03T00:11:31;10.60;29.90
52799;DHT22;38667;42.872;74.622;2023-03-03T00:13:57;10.60;29.60
52799;DHT22;38667;42.872;74.622;2023-03-03T00:16:29;10.80;29.30
52799;DHT22;38667;42.872;74.622;2023-03-03T00:18:56;10.90;29.10
52799;DHT22;38667;42.872;74.622;2023-03-03T00:21:26;10.90;29.30
52799;DHT22;38667;42.872;74.622;2023-03-03T00:23:54;10.70;30.60
52799;DHT22;38667;42.872;74.622;2023-03-03T00:26:28;10.70;29.20
52799;DHT22;38667;42.872;74.622;2023-03-03T00:28:55;10.70;29.70
52799;DHT22;38667;42.872;74.622;2023-03-03T00:31:31;10.70;28.70
52799;DHT22;38667;42.872;74.622;2023-03-03T00:34:09;10.70;29.40
52799;DHT22;38667;42.872;74.622;2023-03-03T00:36:40;10.70;30.00
52799;DHT22;38667;42.872;74.622;2023-03-03T00:39:25;10.60;28.50
52799;DHT22;38667;42.872;74.622;2023-03-03T00:41:51;10.50;30.90
52799;DHT22;38667;42.872;74.622;2023-03-03T00:44:39;10.40;31.30
52799;DHT22;38667;42.872;74.622;2023-03-03T00:47:23;10.20;31.70
52799;DHT22;38667;42.872;74.622;2023-03-03T00:49:50;10.40;27.70
52799;DHT22;38667;42.872;74.622;2023-03-03T00:52:17;10.70;28.60
52799;DHT22;38667;42.872;74.622;2023-03-03T00:54:46;10.70;27.40
52799;DHT22;38667;42.872;74.622;2023-03-03T00:57:12;10.80;26.70
52799;DHT22;38667;42.872;74.622;2023-03-03T00:59:38;10.90;28.50
52799;DHT22;38667;42.872;74.622;2023-03-03T01:02:05;10.80;29.90
52799;DHT22;38667;42.872;74.622;2023-03-03T01:04:31;10.60;31.00
52799;DHT22;38667;42.872;74.622;2023-03-03T01:06:57;10.40;30.90
52799;DHT22;38667;42.872;74.622;2023-03-03T01:09:24;10.30;31.00
52799;DHT22;38667;42.872;74.622;2023-03-03T01:11:52;10.20;31.00
52799;DHT22;38667;42.872;74.622;2023-03-03T01:14:18;10.20;31.30
52799;DHT22;38667;42.872;74.622;2023-03-03T01:16:44;10.10;32.10
52799;DHT22;38667;42.872;74.622;2023-03-03T01:19:11;10.10;32.70
52799;DHT22;38667;42.872;74.622;2023-03-03T01:21:37;9.90;33.20
52799;DHT22;38667;42.872;74.622;2023-03-03T01:24:03;9.80;33.20
52799;DHT22;38667;42.872;74.622;2023-03-03T01:26:30;9.70;32.90
52799;DHT22;38667;42.872;74.622;2023-03-03T01:28:58;9.70;34.20
52799;DHT22;38667;42.872;74.622;2023-03-03T01:31:24;9.70;31.60
52799;DHT22;38667;42.872;74.622;2023-03-03T01:33:51;9.70;33.20
52799;DHT22;38667;42.872;74.622;2023-03-03T01:36:22;9.70;33.80
52799;DHT22;38667;42.872;74.622;2023-03-03T01:38:48;9.60;35.70
52799;DHT22;38667;42.872;74.622;2023-03-03T01:41:15;9.60;35.20
52799;DHT22;38667;42.872;74.622;2023-03-03T01:43:44;9.50;34.00
52799;DHT22;38667;42.872;74.622;2023-03-03T01:46:39;9.50;34.40
52799;DHT22;38667;42.872;74.622;2023-03-03T01:49:13;9.50;35.40
52799;DHT22;38667;42.872;74.622;2023-03-03T01:51:45;9.40;34.80
52799;DHT22;38667;42.872;74.622;2023-03-03T01:54:17;9.50;34.30
52799;DHT22;38667;42.872;74.622;2023-03-03T01:56:45;9.40;35.40
52799;DHT22;38667;42.872;74.622;2023-03-03T01:59:14;9.40;36.80
52799;DHT22;38667;42.872;74.622;2023-03-03T02:01:46;9.40;36.80
52799;DHT22;38667;42.872;74.622;2023-03-03T02:04:12;9.40;36.20
52799;DHT22;38667;42.872;74.622;2023-03-03T02:06:42;9.30;36.70
52799;DHT22;38667;42.872;74.622;2023-03-03T02:09:14;9.20;37.40
52799;DHT22;38667;42.872;74.622;2023-03-03T02:11:43;9.10;35.40
52799;DHT22;38667;42.872;74.622;2023-03-03T02:14:10;9.10;35.20
52799;DHT22;38667;42.872;74.622;2023-03-03T02:16:36;9.20;35.40
52799;DHT22;38667;42.872;74.622;2023-03-03T02:19:05;9.20;37.00
52799;DHT22;38667;42.872;74.622;2023-03-03T02:21:36;9.10;35.40
52799;DHT22;38667;42.872;74.622;2023-03-03T02:24:04;9.20;36.20
52799;DHT22;38667;42.872;74.622;2023-03-03T02:26:36;9.10;36.60
52799;DHT22;38667;42.872;74.622;2023-03-03T02:29:04;9.10;37.60
52799;DHT22;38667;42.872;74.622;2023-03-03T02:31:30;9.20;36.50
52799;DHT22;38667;42.872;74.622;2023-03-03T02:33:57;9.30;34.00
52799;DHT22;38667;42.872;74.622;2023-03-03T02:36:25;9.40;36.60
52799;DHT22;38667;42.872;74.622;2023-03-03T02:38:58;9.40;37.80
52799;DHT22;38667;42.872;74.622;2023-03-03T02:41:31;9.40;38.90
52799;DHT22;38667;42.872;74.622;2023-03-03T02:44:02;9.40;39.70
52799;DHT22;38667;42.872;74.622;2023-03-03T02:46:32;9.30;38.90
52799;DHT22;38667;42.872;74.622;2023-03-03T02:48:59;9.40;37.80
52799;DHT22;38667;42.872;74.622;2023-03-03T02:51:25;9.40;39.30
52799;DHT22;38667;42.872;74.622;2023-03-03T02:53:52;9.60;34.30
52799;DHT22;38667;42.872;74.622;2023-03-03T02:56:18;9.80;37.00
52799;DHT22;38667;42.872;74.622;2023-03-03T02:58:44;9.90;36.20
52799;DHT22;38667;42.872;74.622;2023-03-03T03:01:12;10.00;37.30
52799;DHT22;38667;42.872;74.622;2023-03-03T03:03:39;10.00;37.80
52799;DHT22;38667;42.872;74.622;2023-03-03T03:06:05;10.00;37.30
52799;DHT22;38667;42.872;74.622;2023-03-03T03:08:32;10.10;36.60
52799;DHT22;38667;42.872;74.622;2023-03-03T03:10:58;10.20;37.80
52799;DHT22;38667;42.872;74.622;2023-03-03T03:13:25;10.30;38.20
52799;DHT22;38667;42.872;74.622;2023-03-03T03:15:51;10.40;37.10
52799;DHT22;38667;42.872;74.622;2023-03-03T03:18:19;10.50;36.50
52799;DHT22;38667;42.872;74.622;2023-03-03T03:20:45;10.70;37.10
52799;DHT22;38667;42.872;74.622;2023-03-03T03:23:12;10.80;35.20
52799;DHT22;38667;42.872;74.622;2023-03-03T03:25:38;11.10;36.70
52799;DHT22;38667;42.872;74.622;2023-03-03T03:28:04;11.20;36.60
52799;DHT22;38667;42.872;74.622;2023-03-03T03:30:31;11.40;37.60
52799;DHT22;38667;42.872;74.622;2023-03-03T03:32:57;11.50;37.40
52799;DHT22;38667;42.872;74.622;2023-03-03T03:35:25;11.60;36.40
52799;DHT22;38667;42.872;74.622;2023-03-03T03:37:51;11.80;35.60
52799;DHT22;38667;42.872;74.622;2023-03-03T03:40:18;11.90;35.70
52799;DHT22;38667;42.872;74.622;2023-03-03T03:42:44;12.10;35.20
52799;DHT22;38667;42.872;74.622;2023-03-03T03:45:11;12.20;34.70
52799;DHT22;38667;42.872;74.622;2023-03-03T03:47:37;12.40;34.40
52799;DHT22;38667;42.872;74.622;2023-03-03T03:50:04;12.50;32.20
52799;DHT22;38667;42.872;74.622;2023-03-03T03:52:32;12.60;32.60
52799;DHT22;38667;42.872;74.622;2023-03-03T03:54:59;12.70;31.30
52799;DHT22;38667;42.872;74.622;2023-03-03T03:57:25;12.80;32.20
52799;DHT22;38667;42.872;74.622;2023-03-03T03:59:51;12.90;31.80
52799;DHT22;38667;42.872;74.622;2023-03-03T04:02:18;13.00;31.60
52799;DHT22;38667;42.872;74.622;2023-03-03T04:04:44;13.00;32.10
52799;DHT22;38667;42.872;74.622;2023-03-03T04:07:11;13.10;29.50
52799;DHT22;38667;42.872;74.622;2023-03-03T04:09:39;13.10;29.60
52799;DHT22;38667;42.872;74.622;2023-03-03T04:12:05;13.20;28.30
52799;DHT22;38667;42.872;74.622;2023-03-03T04:14:32;13.20;28.90
52799;DHT22;38667;42.872;74.622;2023-03-03T04:16:58;13.20;27.50
52799;DHT22;38667;42.872;74.622;2023-03-03T04:19:24;13.30;28.50
52799;DHT22;38667;42.872;74.622;2023-03-03T04:21:51;13.30;29.00
52799;DHT22;38667;42.872;74.622;2023-03-03T04:24:17;13.40;29.40
52799;DHT22;38667;42.872;74.622;2023-03-03T04:26:45;13.40;29.10
52799;DHT22;38667;42.872;74.622;2023-03-03T04:29:11;13.50;30.20
52799;DHT22;38667;42.872;74.622;2023-03-03T04:31:37;13.50;32.00
52799;DHT22;38667;42.872;74.622;2023-03-03T04:34:04;13.50;32.30
52799;DHT22;38667;42.872;74.622;2023-03-03T04:36:30;13.50;32.60
52799;DHT22;38667;42.872;74.622;2023-03-03T04:38:56;13.50;33.90
52799;DHT22;38667;42.872;74.622;2023-03-03T04:41:23;13.50;34.50
52799;DHT22;38667;42.872;74.622;2023-03-03T04:43:51;13.50;35.60
52799;DHT22;38667;42.872;74.622;2023-03-03T04:46:17;13.50;35.10
52799;DHT22;38667;42.872;74.622;2023-03-03T04:48:43;13.60;34.50
52799;DHT22;38667;42.872;74.622;2023-03-03T04:51:09;13.70;34.60
52799;DHT22;38667;42.872;74.622;2023-03-03T04:53:36;13.80;34.00
52799;DHT22;38667;42.872;74.622;2023-03-03T04:56:02;14.10;28.50
52799;DHT22;38667;42.872;74.622;2023-03-03T04:58:29;14.30;25.80
52799;DHT22;38667;42.872;74.622;2023-03-03T05:00:57;14.60;25.60
52799;DHT22;38667;42.872;74.622;2023-03-03T05:03:23;14.70;26.10
52799;DHT22;38667;42.872;74.622;2023-03-03T05:05:50;14.90;26.80
52799;DHT22;38667;42.872;74.622;2023-03-03T05:08:16;15.10;27.60
52799;DHT22;38667;42.872;74.622;2023-03-03T05:10:42;15.40;28.10
52799;DHT22;38667;42.872;74.622;2023-03-03T05:13:09;15.60;30.60
52799;DHT22;38667;42.872;74.622;2023-03-03T05:15:35;15.60;32.90
52799;DHT22;38667;42.872;74.622;2023-03-03T05:18:03;15.60;32.60
52799;DHT22;38667;42.872;74.622;2023-03-03T05:20:29;15.70;33.00
52799;DHT22;38667;42.872;74.622;2023-03-03T05:22:56;15.70;32.60
52799;DHT22;38667;42.872;74.622;2023-03-03T05:25:22;15.70;32.40
52799;DHT22;38667;42.872;74.622;2023-03-03T05:27:48;15.60;32.50
52799;DHT22;38667;42.872;74.622;2023-03-03T05:30:15;15.60;32.40
52799;DHT22;38667;42.872;74.622;2023-03-03T05:32:41;15.50;32.30
52799;DHT22;38667;42.872;74.622;2023-03-03T05:35:09;15.60;32.30
52799;DHT22;38667;42.872;74.622;2023-03-03T05:37:36;15.60;31.30
52799;DHT22;38667;42.872;74.622;2023-03-03T05:40:02;15.80;30.80
52799;DHT22;38667;42.872;74.622;2023-03-03T05:42:28;15.90;29.80
52799;DHT22;38667;42.872;74.622;2023-03-03T05:44:55;16.10;27.90
52799;DHT22;38667;42.872;74.622;2023-03-03T05:47:21;16.30;27.30
52799;DHT22;38667;42.872;74.622;2023-03-03T05:49:47;16.40;26.50
52799;DHT22;38667;42.872;74.622;2023-03-03T05:52:15;16.60;26.10
52799;DHT22;38667;42.872;74.622;2023-03-03T05:54:41;16.80;25.60
52799;DHT22;38667;42.872;74.622;2023-03-03T05:57:08;16.80;24.70
52799;DHT22;38667;42.872;74.622;2023-03-03T05:59:34;16.90;25.10
52799;DHT22;38667;42.872;74.622;2023-03-03T06:02:00;16.90;24.60
52799;DHT22;38667;42.872;74.622;2023-03-03T06:04:27;16.90;25.80
52799;DHT22;38667;42.872;74.622;2023-03-03T06:06:53;17.00;25.00
52799;DHT22;38667;42.872;74.622;2023-03-03T06:09:21;17.00;25.80
52799;DHT22;38667;42.872;74.622;2023-03-03T06:11:47;17.10;24.10
52799;DHT22;38667;42.872;74.622;2023-03-03T06:14:13;17.30;23.80
52799;DHT22;38667;42.872;74.622;2023-03-03T06:16:40;17.50;23.50
52799;DHT22;38667;42.872;74.622;2023-03-03T06:19:06;17.70;24.90
52799;DHT22;38667;42.872;74.622;2023-03-03T06:21:32;18.10;25.80
52799;DHT22;38667;42.872;74.622;2023-03-03T06:23:59;18.20;26.10
52799;DHT22;38667;42.872;74.622;2023-03-03T06:26:26;18.30;25.80
52799;DHT22;38667;42.872;74.622;2023-03-03T06:28:53;18.30;26.30
52799;DHT22;38667;42.872;74.622;2023-03-03T06:31:19;18.40;26.20
52799;DHT22;38667;42.872;74.622;2023-03-03T06:33:45;18.60;27.60
52799;DHT22;38667;42.872;74.622;2023-03-03T06:36:12;18.60;28.00
52799;DHT22;38667;42.872;74.622;2023-03-03T06:38:38;18.70;28.00
52799;DHT22;38667;42.872;74.622;2023-03-03T06:41:04;19.10;28.20
52799;DHT22;38667;42.872;74.622;2023-03-03T06:43:32;19.20;27.60
52799;DHT22;38667;42.872;74.622;2023-03-03T06:45:59;19.40;27.00
52799;DHT22;38667;42.872;74.622;2023-03-03T06:48:25;19.40;26.30
52799;DHT22;38667;42.872;74.622;2023-03-03T06:50:51;19.50;26.20
52799;DHT22;38667;42.872;74.622;2023-03-03T06:53:18;19.80;24.90
52799;DHT22;38667;42.872;74.622;2023-03-03T06:55:44;20.10;20.00
52799;DHT22;38667;42.872;74.622;2023-03-03T06:58:13;20.30;19.10
52799;DHT22;38667;42.872;74.622;2023-03-03T07:00:42;20.60;19.10
52799;DHT22;38667;42.872;74.622;2023-03-03T07:03:13;20.70;17.80
52799;DHT22;38667;42.872;74.622;2023-03-03T07:05:40;20.70;16.80
52799;DHT22;38667;42.872;74.622;2023-03-03T07:08:12;20.60;17.20
52799;DHT22;38667;42.872;74.622;2023-03-03T07:10:39;20.80;18.30
52799;DHT22;38667;42.872;74.622;2023-03-03T07:13:16;20.80;17.70
52799;DHT22;38667;42.872;74.622;2023-03-03T07:15:45;20.90;17.10
52799;DHT22;38667;42.872;74.622;2023-03-03T07:18:24;20.80;17.40
52799;DHT22;38667;42.872;74.622;2023-03-03T07:20:52;20.80;17.40
52799;DHT22;38667;42.872;74.622;2023-03-03T07:23:22;21.00;16.80
52799;DHT22;38667;42.872;74.622;2023-03-03T07:25:50;21.10;16.50
52799;DHT22;38667;42.872;74.622;2023-03-03T07:28:21;21.10;16.40
52799;DHT22;38667;42.872;74.622;2023-03-03T07:30:50;21.20;16.40
52799;DHT22;38667;42.872;74.622;2023-03-03T07:33:22;21.10;15.90
52799;DHT22;38667;42.872;74.622;2023-03-03T07:35:50;20.80;15.10
52799;DHT22;38667;42.872;74.622;2023-03-03T07:38:23;21.00;16.00
52799;DHT22;38667;42.872;74.622;2023-03-03T07:40:52;21.40;16.30
52799;DHT22;38667;42.872;74.622;2023-03-03T07:43:36;21.50;16.20
52799;DHT22;38667;42.872;74.622;2023-03-03T07:46:28;21.60;16.20
52799;DHT22;38667;42.872;74.622;2023-03-03T07:48:55;21.80;15.90
52799;DHT22;38667;42.872;74.622;2023-03-03T07:51:23;22.10;16.60
52799;DHT22;38667;42.872;74.622;2023-03-03T07:53:51;22.30;16.90
52799;DHT22;38667;42.872;74.622;2023-03-03T07:56:26;22.40;17.30
52799;DHT22;38667;42.872;74.622;2023-03-03T07:58:53;22.40;16.70
52799;DHT22;38667;42.872;74.622;2023-03-03T08:01:41;22.50;16.80
52799;DHT22;38667;42.872;74.622;2023-03-03T08:04:21;22.70;16.70
52799;DHT22;38667;42.872;74.622;2023-03-03T08:06:53;23.00;15.40
52799;DHT22;38667;42.872;74.622;2023-03-03T08:09:43;23.10;16.10
52799;DHT22;38667;42.872;74.622;2023-03-03T08:12:38;23.00;15.60
52799;DHT22;38667;42.872;74.622;2023-03-03T08:15:18;22.90;15.90
52799;DHT22;38667;42.872;74.622;2023-03-03T08:17:47;22.70;16.70
52799;DHT22;38667;42.872;74.622;2023-03-03T08:20:42;22.50;16.60
52799;DHT22;38667;42.872;74.622;2023-03-03T08:23:09;22.40;16.40
52799;DHT22;38667;42.872;74.622;2023-03-03T08:25:35;22.60;16.20
52799;DHT22;38667;42.872;74.622;2023-03-03T08:28:01;22.90;16.70
52799;DHT22;38667;42.872;74.622;2023-03-03T08:30:28;22.90;16.70
52799;DHT22;38667;42.872;74.622;2023-03-03T08:32:56;22.70;16.90
52799;DHT22;38667;42.872;74.622;2023-03-03T08:35:22;22.50;17.90
52799;DHT22;38667;42.872;74.622;2023-03-03T08:37:48;22.60;17.80
52799;DHT22;38667;42.872;74.622;2023-03-03T08:40:15;23.00;17.60
52799;DHT22;38667;42.872;74.622;2023-03-03T08:42:41;23.30;17.10
52799;DHT22;38667;42.872;74.622;2023-03-03T08:45:08;23.10;17.50
52799;DHT22;38667;42.872;74.622;2023-03-03T08:47:34;23.60;18.90
52799;DHT22;38667;42.872;74.622;2023-03-03T08:50:02;23.70;20.40
52799;DHT22;38667;42.872;74.622;2023-03-03T08:52:28;23.80;20.50
52799;DHT22;38667;42.872;74.622;2023-03-03T08:54:54;23.70;20.70
52799;DHT22;38667;42.872;74.622;2023-03-03T08:57:21;23.50;21.10
52799;DHT22;38667;42.872;74.622;2023-03-03T08:59:47;23.60;20.00
52799;DHT22;38667;42.872;74.622;2023-03-03T09:02:13;23.90;19.80
52799;DHT22;38667;42.872;74.622;2023-03-03T09:04:40;23.80;19.90
52799;DHT22;38667;42.872;74.622;2023-03-03T09:07:08;23.90;19.00
52799;DHT22;38667;42.872;74.622;2023-03-03T09:09:34;24.20;18.40
52799;DHT22;38667;42.872;74.622;2023-03-03T09:12:12;24.50;16.70
52799;DHT22;38667;42.872;74.622;2023-03-03T09:14:39;25.10;15.70
52799;DHT22;38667;42.872;74.622;2023-03-03T09:17:21;25.40;14.80
52799;DHT22;38667;42.872;74.622;2023-03-03T09:19:48;25.30;15.70
52799;DHT22;38667;42.872;74.622;2023-03-03T09:22:18;25.30;15.10
52799;DHT22;38667;42.872;74.622;2023-03-03T09:24:46;25.20;13.90
52799;DHT22;38667;42.872;74.622;2023-03-03T09:27:18;24.50;14.30
52799;DHT22;38667;42.872;74.622;2023-03-03T09:29:44;23.70;13.50
52799;DHT22;38667;42.872;74.622;2023-03-03T09:32:23;23.10;14.50
52799;DHT22;38667;42.872;74.622;2023-03-03T09:34:51;22.70;14.30
52799;DHT22;38667;42.872;74.622;2023-03-03T09:37:21;22.40;13.80
52799;DHT22;38667;42.872;74.622;2023-03-03T09:39:49;22.30;14.10
52799;DHT22;38667;42.872;74.622;2023-03-03T09:42:31;22.20;14.30
52799;DHT22;38667;42.872;74.622;2023-03-03T09:45:21;22.40;15.10
52799;DHT22;38667;42.872;74.622;2023-03-03T09:48:10;22.00;15.90
52799;DHT22;38667;42.872;74.622;2023-03-03T09:50:48;21.60;16.90
52799;DHT22;38667;42.872;74.622;2023-03-03T09:53:30;21.50;17.70
52799;DHT22;38667;42.872;74.622;2023-03-03T09:56:04;21.30;17.90
52799;DHT22;38667;42.872;74.622;2023-03-03T09:58:46;21.20;18.00
52799;DHT22;38667;42.872;74.622;2023-03-03T10:01:34;21.20;18.10
52799;DHT22;38667;42.872;74.622;2023-03-03T10:04:23;21.30;18.30
52799;DHT22;38667;42.872;74.622;2023-03-03T10:07:02;21.10;18.50
52799;DHT22;38667;42.872;74.622;2023-03-03T10:09:45;21.00;19.40
52799;DHT22;38667;42.872;74.622;2023-03-03T10:12:25;20.90;21.20
52799;DHT22;38667;42.872;74.622;2023-03-03T10:15:26;20.80;21.10
52799;DHT22;38667;42.872;74.622;2023-03-03T10:18:00;20.50;21.30
52799;DHT22;38667;42.872;74.622;2023-03-03T10:20:40;20.40;22.00
52799;DHT22;38667;42.872;74.622;2023-03-03T10:23:17;20.40;21.80
52799;DHT22;38667;42.872;74.622;2023-03-03T10:25:53;20.40;22.80
52799;DHT22;38667;42.872;74.622;2023-03-03T10:28:44;20.20;23.20
52799;DHT22;38667;42.872;74.622;2023-03-03T10:31:20;20.10;24.30
52799;DHT22;38667;42.872;74.622;2023-03-03T10:33:53;20.00;29.60
52799;DHT22;38667;42.872;74.622;2023-03-03T10:36:39;19.60;30.60
52799;DHT22;38667;42.872;74.622;2023-03-03T10:42:20;19.50;32.60
52799;DHT22;38667;42.872;74.622;2023-03-03T10:47:52;18.80;34.20
52799;DHT22;38667;42.872;74.622;2023-03-03T10:50:26;18.70;34.30
52799;DHT22;38667;42.872;74.622;2023-03-03T10:53:04;18.70;35.50
52799;DHT22;38667;42.872;74.622;2023-03-03T10:55:42;18.70;35.70
52799;DHT22;38667;42.872;74.622;2023-03-03T10:58:33;18.40;36.10
52799;DHT22;38667;42.872;74.622;2023-03-03T11:01:11;18.20;36.30
52799;DHT22;38667;42.872;74.622;2023-03-03T11:06:46;17.90;35.90
52799;DHT22;38667;42.872;74.622;2023-03-03T11:09:33;17.90;36.50
52799;DHT22;38667;42.872;74.622;2023-03-03T11:12:13;17.90;37.20
52799;DHT22;38667;42.872;74.622;2023-03-03T11:14:46;18.10;37.10
52799;DHT22;38667;42.872;74.622;2023-03-03T11:17:18;17.40;38.40
52799;DHT22;38667;42.872;74.622;2023-03-03T11:20:00;16.80;38.80
52799;DHT22;38667;42.872;74.622;2023-03-03T11:22:41;16.50;39.90
52799;DHT22;38667;42.872;74.622;2023-03-03T11:25:17;16.10;40.70
52799;DHT22;38667;42.872;74.622;2023-03-03T11:28:14;15.90;41.20
52799;DHT22;38667;42.872;74.622;2023-03-03T11:30:55;15.70;41.40
52799;DHT22;38667;42.872;74.622;2023-03-03T11:33:29;15.30;42.30
52799;DHT22;38667;42.872;74.622;2023-03-03T11:36:08;15.20;42.30
52799;DHT22;38667;42.872;74.622;2023-03-03T11:38:44;15.10;42.20
52799;DHT22;38667;42.872;74.622;2023-03-03T11:41:19;14.90;42.00
52799;DHT22;38667;42.872;74.622;2023-03-03T11:43:51;14.60;41.90
52799;DHT22;38667;42.872;74.622;2023-03-03T11:46:24;14.30;42.90
52799;DHT22;38667;42.872;74.622;2023-03-03T11:48:56;14.10;43.70
52799;DHT22;38667;42.872;74.622;2023-03-03T11:51:34;14.00;44.10
52799;DHT22;38667;42.872;74.622;2023-03-03T11:54:07;14.00;45.00
52799;DHT22;38667;42.872;74.622;2023-03-03T11:56:39;13.90;45.60
52799;DHT22;38667;42.872;74.622;2023-03-03T11:59:24;13.80;45.80
52799;DHT22;38667;42.872;74.622;2023-03-03T12:01:56;13.70;46.40
52799;DHT22;38667;42.872;74.622;2023-03-03T12:04:28;13.50;46.90
52799;DHT22;38667;42.872;74.622;2023-03-03T12:07:08;13.50;47.10
52799;DHT22;38667;42.872;74.622;2023-03-03T12:09:44;13.60;47.30
52799;DHT22;38667;42.872;74.622;2023-03-03T12:12:14;13.50;47.50
52799;DHT22;38667;42.872;74.622;2023-03-03T12:14:57;13.50;48.60
52799;DHT22;38667;42.872;74.622;2023-03-03T12:17:43;13.50;48.60
52799;DHT22;38667;42.872;74.622;2023-03-03T12:20:16;13.30;49.70
52799;DHT22;38667;42.872;74.622;2023-03-03T12:22:51;13.30;49.60
52799;DHT22;38667;42.872;74.622;2023-03-03T12:25:31;13.10;50.50
52799;DHT22;38667;42.872;74.622;2023-03-03T12:28:02;12.90;51.30
52799;DHT22;38667;42.872;74.622;2023-03-03T12:31:02;12.80;51.50
52799;DHT22;38667;42.872;74.622;2023-03-03T12:33:41;12.60;53.00
52799;DHT22;38667;42.872;74.622;2023-03-03T12:36:18;12.40;53.80
52799;DHT22;38667;42.872;74.622;2023-03-03T12:38:51;12.10;54.10
52799;DHT22;38667;42.872;74.622;2023-03-03T12:41:26;11.70;55.10
52799;DHT22;38667;42.872;74.622;2023-03-03T12:43:57;11.60;55.50
52799;DHT22;38667;42.872;74.622;2023-03-03T12:46:37;11.60;56.10
52799;DHT22;38667;42.872;74.622;2023-03-03T12:49:07;11.40;56.20
52799;DHT22;38667;42.872;74.622;2023-03-03T12:51:40;11.20;56.70
52799;DHT22;38667;42.872;74.622;2023-03-03T12:54:21;11.10;57.60
52799;DHT22;38667;42.872;74.622;2023-03-03T12:56:53;10.90;58.50
52799;DHT22;38667;42.872;74.622;2023-03-03T12:59:26;10.70;59.10
52799;DHT22;38667;42.872;74.622;2023-03-03T13:02:07;10.60;59.70
52799;DHT22;38667;42.872;74.622;2023-03-03T13:04:45;10.60;59.90
52799;DHT22;38667;42.872;74.622;2023-03-03T13:07:16;10.60;60.10
52799;DHT22;38667;42.872;74.622;2023-03-03T13:10:03;10.60;59.80
52799;DHT22;38667;42.872;74.622;2023-03-03T13:12:38;10.40;59.20
52799;DHT22;38667;42.872;74.622;2023-03-03T13:15:14;10.30;60.40
52799;DHT22;38667;42.872;74.622;2023-03-03T13:17:47;10.10;61.70
52799;DHT22;38667;42.872;74.622;2023-03-03T13:20:24;10.00;62.10
52799;DHT22;38667;42.872;74.622;2023-03-03T13:22:56;10.20;61.70
52799;DHT22;38667;42.872;74.622;2023-03-03T13:25:41;10.30;61.70
52799;DHT22;38667;42.872;74.622;2023-03-03T13:28:15;10.30;61.30
52799;DHT22;38667;42.872;74.622;2023-03-03T13:30:48;10.30;61.80
52799;DHT22;38667;42.872;74.622;2023-03-03T13:33:19;10.30;62.10
52799;DHT22;38667;42.872;74.622;2023-03-03T13:35:53;10.30;62.50
52799;DHT22;38667;42.872;74.622;2023-03-03T13:38:23;10.20;62.10
52799;DHT22;38667;42.872;74.622;2023-03-03T13:40:53;10.20;62.50
52799;DHT22;38667;42.872;74.622;2023-03-03T13:43:25;10.20;63.50
52799;DHT22;38667;42.872;74.622;2023-03-03T13:45:58;10.20;63.10
52799;DHT22;38667;42.872;74.622;2023-03-03T13:48:37;10.10;62.80
52799;DHT22;38667;42.872;74.622;2023-03-03T13:51:13;10.10;62.70
52799;DHT22;38667;42.872;74.622;2023-03-03T13:53:49;10.10;62.90
52799;DHT22;38667;42.872;74.622;2023-03-03T13:59:25;10.20;62.30
52799;DHT22;38667;42.872;74.622;2023-03-03T14:01:58;10.20;62.20
52799;DHT22;38667;42.872;74.622;2023-03-03T14:04:34;10.10;61.90
52799;DHT22;38667;42.872;74.622;2023-03-03T14:07:11;10.10;60.40
52799;DHT22;38667;42.872;74.622;2023-03-03T14:09:53;10.10;60.00
52799;DHT22;38667;42.872;74.622;2023-03-03T14:12:27;10.10;60.60
52799;DHT22;38667;42.872;74.622;2023-03-03T14:14:59;10.20;60.80
52799;DHT22;38667;42.872;74.622;2023-03-03T14:17:31;10.10;59.20
52799;DHT22;38667;42.872;74.622;2023-03-03T14:20:09;10.20;59.30
52799;DHT22;38667;42.872;74.622;2023-03-03T14:22:44;10.10;58.90
52799;DHT22;38667;42.872;74.622;2023-03-03T14:25:12;10.00;60.10
52799;DHT22;38667;42.872;74.622;2023-03-03T14:27:51;10.00;59.50
52799;DHT22;38667;42.872;74.622;2023-03-03T14:30:28;10.00;59.40
52799;DHT22;38667;42.872;74.622;2023-03-03T14:33:06;10.10;59.40
52799;DHT22;38667;42.872;74.622;2023-03-03T14:35:41;10.10;59.80
52799;DHT22;38667;42.872;74.622;2023-03-03T14:38:13;10.10;59.90
52799;DHT22;38667;42.872;74.622;2023-03-03T14:40:40;10.10;60.10
52799;DHT22;38667;42.872;74.622;2023-03-03T14:43:20;10.10;60.00
52799;DHT22;38667;42.872;74.622;2023-03-03T14:45:47;10.10;60.10
52799;DHT22;38667;42.872;74.622;2023-03-03T14:48:16;10.00;60.90
52799;DHT22;38667;42.872;74.622;2023-03-03T14:50:47;9.90;61.30
52799;DHT22;38667;42.872;74.622;2023-03-03T14:53:21;9.90;62.20
52799;DHT22;38667;42.872;74.622;2023-03-03T14:55:49;9.90;62.60
52799;DHT22;38667;42.872;74.622;2023-03-03T14:58:28;9.80;63.50
52799;DHT22;38667;42.872;74.622;2023-03-03T15:01:16;9.70;64.10
52799;DHT22;38667;42.872;74.622;2023-03-03T15:03:47;9.80;64.10
52799;DHT22;38667;42.872;74.622;2023-03-03T15:06:32;9.70;63.90
52799;DHT22;38667;42.872;74.622;2023-03-03T15:09:24;9.70;64.40
52799;DHT22;38667;42.872;74.622;2023-03-03T15:11:53;9.60;65.00
52799;DHT22;38667;42.872;74.622;2023-03-03T15:14:24;9.60;65.30
52799;DHT22;38667;42.872;74.622;2023-03-03T15:16:55;9.60;65.10
52799;DHT22;38667;42.872;74.622;2023-03-03T15:19:43;9.60;65.30
52799;DHT22;38667;42.872;74.622;2023-03-03T15:22:19;9.60;64.00
52799;DHT22;38667;42.872;74.622;2023-03-03T15:24:53;9.60;63.20
52799;DHT22;38667;42.872;74.622;2023-03-03T15:27:26;9.50;63.70
52799;DHT22;38667;42.872;74.622;2023-03-03T15:30:03;9.50;63.40
52799;DHT22;38667;42.872;74.622;2023-03-03T15:32:36;9.50;63.80
52799;DHT22;38667;42.872;74.622;2023-03-03T15:35:11;9.50;64.00
52799;DHT22;38667;42.872;74.622;2023-03-03T15:37:44;9.40;63.10
52799;DHT22;38667;42.872;74.622;2023-03-03T15:40:21;9.40;63.70
52799;DHT22;38667;42.872;74.622;2023-03-03T15:42:55;9.40;63.50
52799;DHT22;38667;42.872;74.622;2023-03-03T15:45:28;9.40;63.80
52799;DHT22;38667;42.872;74.622;2023-03-03T15:48:09;9.30;63.40
52799;DHT22;38667;42.872;74.622;2023-03-03T15:50:43;9.20;63.00
52799;DHT22;38667;42.872;74.622;2023-03-03T15:56:08;9.20;63.40
52799;DHT22;38667;42.872;74.622;2023-03-03T15:58:54;9.20;63.50
52799;DHT22;38667;42.872;74.622;2023-03-03T16:01:26;9.10;63.20